Time;durP1;ratioP1;P1;durP2;ratioP2;P2;SDS_P1;SDS_P2;PMS_P1;PMS_P2;Temp;Humidity;BMP_temperature;BMP_pressure;BME280_temperature;BME280_humidity;BME280_pressure;Samples;Min_cycle;Max_cycle;Signal;HPM_P1;HPM_P2
2023/10/14 00:00:46;;;;;;;10.88;5.85;;;21.30;74.80;;;;;;7404441;19;19919;-73
2023/10/14 00:03:26;;;;;;;10.13;6.15;;;21.20;74.50;;;;;;7403544;19;19922;-73
2023/10/14 00:05:53;;;;;;;8.98;5.18;;;21.30;74.30;;;;;;7404169;19;19982;-74
2023/10/14 00:08:18;;;;;;;11.10;5.63;;;21.20;73.90;;;;;;7405336;19;19922;-72
2023/10/14 00:10:44;;;;;;;10.35;6.07;;;21.30;73.00;;;;;;7404837;19;20360;-73
2023/10/14 00:13:12;;;;;;;9.75;5.60;;;21.20;73.70;;;;;;7401850;19;19958;-73
2023/10/14 00:15:39;;;;;;;10.32;5.90;;;21.20;74.80;;;;;;7405151;19;20002;-72
2023/10/14 00:18:07;;;;;;;8.65;5.82;;;21.10;75.50;;;;;;7400027;19;19922;-72
2023/10/14 00:20:36;;;;;;;10.77;6.57;;;21.10;76.20;;;;;;7400648;19;19922;-73
2023/10/14 00:23:04;;;;;;;8.57;5.90;;;21.10;76.30;;;;;;7401428;19;19918;-73
2023/10/14 00:25:34;;;;;;;9.70;6.43;;;21.00;76.40;;;;;;7400334;19;19939;-74
2023/10/14 00:28:07;;;;;;;10.65;6.38;;;21.00;77.30;;;;;;7404432;19;19907;-73
2023/10/14 00:30:33;;;;;;;11.45;6.18;;;21.00;77.90;;;;;;7402639;19;20264;-73
2023/10/14 00:32:59;;;;;;;9.52;6.40;;;20.90;78.20;;;;;;7402425;19;19978;-73
2023/10/14 00:35:26;;;;;;;11.35;6.05;;;20.90;78.70;;;;;;7402625;19;19911;-74
2023/10/14 00:37:53;;;;;;;10.85;5.72;;;20.80;78.90;;;;;;7405098;19;19987;-73
2023/10/14 00:40:22;;;;;;;10.57;6.70;;;20.80;80.00;;;;;;7400615;19;19918;-74
2023/10/14 00:42:50;;;;;;;10.75;6.50;;;20.80;82.20;;;;;;7398621;19;19922;-74
2023/10/14 00:45:20;;;;;;;11.55;6.70;;;20.80;81.60;;;;;;7400390;19;20600;-74
2023/10/14 00:47:49;;;;;;;12.50;6.88;;;20.80;81.00;;;;;;7399675;19;19970;-73
2023/10/14 00:50:27;;;;;;;10.32;6.47;;;20.80;81.30;;;;;;7399082;19;20339;-72
2023/10/14 00:53:00;;;;;;;11.95;5.88;;;20.80;80.10;;;;;;7398151;19;20332;-72
2023/10/14 00:55:45;;;;;;;9.55;5.72;;;20.80;80.30;;;;;;7393640;19;20598;-73
2023/10/14 00:58:13;;;;;;;9.98;6.60;;;20.70;81.00;;;;;;7396215;19;19927;-72
2023/10/14 01:00:56;;;;;;;13.25;6.63;;;20.80;81.30;;;;;;7396209;19;20261;-73
2023/10/14 01:03:26;;;;;;;11.23;7.25;;;20.90;80.90;;;;;;7392901;19;20008;-72
2023/10/14 01:05:56;;;;;;;9.18;6.28;;;20.80;81.70;;;;;;7377920;19;19921;-72
2023/10/14 01:08:25;;;;;;;13.00;7.18;;;20.70;81.60;;;;;;7394093;19;19915;-73
2023/10/14 01:10:52;;;;;;;12.38;6.97;;;20.70;82.10;;;;;;7394781;19;19948;-71
2023/10/14 01:13:23;;;;;;;14.05;7.60;;;20.70;83.20;;;;;;7392700;19;19923;-73
2023/10/14 01:16:32;;;;;;;11.38;6.55;;;20.70;83.40;;;;;;7397245;19;19921;-72
2023/10/14 01:18:39;;;;;;;12.85;7.68;;;20.70;83.80;;;;;;7397303;19;19911;-72
2023/10/14 01:21:07;;;;;;;12.77;7.35;;;20.60;84.20;;;;;;7396487;19;19926;-73
2023/10/14 01:23:37;;;;;;;10.32;6.65;;;20.60;84.90;;;;;;7397597;19;19914;-72
2023/10/14 01:26:05;;;;;;;13.52;7.38;;;20.60;85.10;;;;;;7398776;19;19982;-72
2023/10/14 01:28:32;;;;;;;13.95;8.85;;;20.70;85.80;;;;;;7397200;19;19926;-73
2023/10/14 01:34:22;;;;;;;13.30;7.25;;;20.80;88.40;;;;;;7394042;19;19918;-71
2023/10/14 01:36:49;;;;;;;12.10;7.88;;;20.80;87.90;;;;;;7396272;19;19914;-72
2023/10/14 01:39:21;;;;;;;14.40;7.45;;;20.70;87.50;;;;;;7398442;19;20382;-73
2023/10/14 01:41:47;;;;;;;15.30;8.20;;;20.70;86.70;;;;;;7399202;19;20359;-71
2023/10/14 01:44:21;;;;;;;10.00;6.95;;;20.70;86.10;;;;;;7400515;19;20012;-73
2023/10/14 01:46:48;;;;;;;12.52;7.88;;;20.70;86.50;;;;;;7403618;19;20839;-72
2023/10/14 01:49:19;;;;;;;;;;;20.60;87.30;;;;;;7397415;19;19914;-71
2023/10/14 01:51:49;;;;;;;13.95;9.10;;;20.60;88.40;;;;;;7403390;19;19952;-72
2023/10/14 01:54:16;;;;;;;13.77;10.43;;;20.60;90.40;;;;;;7397403;19;19926;-73
2023/10/14 01:56:43;;;;;;;15.80;10.35;;;20.60;92.00;;;;;;7397515;19;20497;-73
2023/10/14 01:59:09;;;;;;;;;;;20.60;92.60;;;;;;7400068;19;20436;-73
2023/10/14 02:01:41;;;;;;;20.23;11.82;;;20.60;92.70;;;;;;7397053;19;19918;-73
2023/10/14 02:04:08;;;;;;;16.63;11.15;;;20.60;92.90;;;;;;7397580;19;19958;-73
2023/10/14 02:06:34;;;;;;;17.23;11.27;;;20.60;93.30;;;;;;7401229;19;19930;-73
2023/10/14 02:09:00;;;;;;;18.77;11.23;;;20.60;93.50;;;;;;7399769;19;19919;-74
2023/10/14 02:11:34;;;;;;;16.52;11.90;;;20.60;93.50;;;;;;7400162;19;19911;-73
2023/10/14 02:14:07;;;;;;;16.27;11.02;;;20.60;93.50;;;;;;7400630;19;19921;-74
2023/10/14 02:16:44;;;;;;;16.52;12.02;;;20.50;93.30;;;;;;7397773;19;19914;-73
2023/10/14 02:19:49;;;;;;;17.17;11.15;;;20.50;93.30;;;;;;7399732;19;19923;-74
2023/10/14 02:22:03;;;;;;;16.52;11.50;;;20.50;93.50;;;;;;7397373;19;19934;-74
2023/10/14 02:24:30;;;;;;;15.05;10.80;;;20.50;93.50;;;;;;7401518;19;19915;-73
2023/10/14 02:27:12;;;;;;;17.30;11.45;;;20.50;93.50;;;;;;7397367;19;19919;-74
2023/10/14 02:29:51;;;;;;;15.25;10.00;;;20.50;93.50;;;;;;7397546;19;19919;-73
2023/10/14 02:32:20;;;;;;;14.00;9.98;;;20.50;93.50;;;;;;7375126;19;19918;-73
2023/10/14 02:34:46;;;;;;;13.95;9.18;;;20.50;93.50;;;;;;7396229;19;20390;-73
2023/10/14 02:37:15;;;;;;;16.17;10.57;;;20.50;93.50;;;;;;7398121;19;19918;-73
2023/10/14 02:39:43;;;;;;;15.40;10.35;;;20.50;93.40;;;;;;7398756;19;19991;-73
2023/10/14 02:42:09;;;;;;;15.90;10.43;;;20.50;93.40;;;;;;7399933;19;19918;-74
2023/10/14 02:44:52;;;;;;;13.02;9.25;;;20.50;93.30;;;;;;7400895;19;20247;-74
2023/10/14 02:47:19;;;;;;;14.30;9.80;;;20.50;93.30;;;;;;7398334;19;19919;-73
2023/10/14 02:49:53;;;;;;;15.32;9.70;;;20.50;93.10;;;;;;7407047;19;19921;-74
2023/10/14 02:52:29;;;;;;;12.77;8.85;;;20.50;92.90;;;;;;7406279;19;20332;-73
2023/10/14 02:55:18;;;;;;;13.75;9.10;;;20.60;92.70;;;;;;7405717;19;19911;-74
2023/10/14 02:57:42;;;;;;;12.52;8.68;;;20.60;92.60;;;;;;7406812;19;20618;-73
2023/10/14 03:00:12;;;;;;;12.65;8.68;;;20.70;92.40;;;;;;7404533;19;19918;-73
2023/10/14 03:02:54;;;;;;;13.38;8.60;;;20.60;92.40;;;;;;7404550;19;19926;-73
2023/10/14 03:05:36;;;;;;;12.80;8.55;;;20.70;92.40;;;;;;7404080;19;19946;-74
2023/10/14 03:08:10;;;;;;;12.65;9.05;;;20.70;92.30;;;;;;7404186;19;19918;-73
2023/10/14 03:10:39;;;;;;;14.73;8.98;;;20.60;92.40;;;;;;7401697;19;19933;-73
2023/10/14 03:13:14;;;;;;;12.02;8.10;;;20.70;92.40;;;;;;7403795;19;20650;-73
2023/10/14 03:15:44;;;;;;;12.50;8.57;;;20.60;92.50;;;;;;7404888;19;19929;-73
2023/10/14 03:18:17;;;;;;;12.35;7.97;;;20.60;92.60;;;;;;7404766;19;19938;-73
2023/10/14 03:23:19;;;;;;;14.38;9.52;;;20.60;92.70;;;;;;7403033;19;19947;-74
2023/10/14 03:25:50;;;;;;;13.30;9.02;;;20.60;92.90;;;;;;7400648;19;19918;-73
2023/10/14 03:28:21;;;;;;;14.85;9.45;;;20.60;93.00;;;;;;7401581;19;19978;-73
2023/10/14 03:30:55;;;;;;;12.77;9.27;;;20.60;93.20;;;;;;7403158;19;19974;-73
2023/10/14 03:33:23;;;;;;;14.70;9.43;;;20.60;93.30;;;;;;7404103;19;19974;-73
2023/10/14 03:36:05;;;;;;;15.68;10.35;;;20.60;93.40;;;;;;7403263;19;19914;-73
2023/10/14 03:41:16;;;;;;;14.10;9.90;;;20.70;93.60;;;;;;7405764;19;19927;-73
2023/10/14 03:43:43;;;;;;;13.75;9.70;;;20.60;93.60;;;;;;7400430;19;19922;-72
2023/10/14 03:46:12;;;;;;;14.32;9.90;;;20.70;93.80;;;;;;7402126;19;19910;-74
2023/10/14 03:48:46;;;;;;;17.65;11.05;;;20.60;93.80;;;;;;7404956;19;19918;-73
2023/10/14 03:51:13;;;;;;;15.93;10.02;;;20.60;94.00;;;;;;7403953;19;19921;-72
2023/10/14 03:53:39;;;;;;;14.98;10.45;;;20.60;94.20;;;;;;7400517;19;19918;-74
2023/10/14 03:56:04;;;;;;;13.65;10.25;;;20.70;94.50;;;;;;7398246;19;19954;-73
2023/10/14 03:58:31;;;;;;;18.20;11.02;;;20.70;94.70;;;;;;7398861;19;19910;-74
2023/10/14 04:01:04;;;;;;;16.55;11.05;;;20.60;94.80;;;;;;7400021;19;19936;-73
2023/10/14 04:03:39;;;;;;;;;;;20.70;94.90;;;;;;7402580;19;20259;-73
2023/10/14 04:06:09;;;;;;;14.10;9.90;;;20.70;94.90;;;;;;7400982;19;19962;-73
2023/10/14 04:08:47;;;;;;;15.65;10.18;;;20.70;94.90;;;;;;7403328;19;19963;-74
2023/10/14 04:11:17;;;;;;;14.60;10.25;;;20.60;95.00;;;;;;7399750;19;19919;-73
2023/10/14 04:14:02;;;;;;;13.60;10.38;;;20.60;95.00;;;;;;7403560;19;19951;-73
2023/10/14 04:16:37;;;;;;;16.00;10.95;;;20.60;95.20;;;;;;7400103;19;19922;-74
2023/10/14 04:19:18;;;;;;;18.65;10.73;;;20.60;95.30;;;;;;7402086;19;19915;-73
2023/10/14 04:21:53;;;;;;;19.75;10.93;;;20.60;95.40;;;;;;7400765;19;19982;-74
2023/10/14 04:24:28;;;;;;;17.20;11.57;;;20.60;95.50;;;;;;7403695;19;19974;-73
2023/10/14 04:27:16;;;;;;;16.27;11.15;;;20.60;95.60;;;;;;7403573;19;19919;-73
2023/10/14 04:29:50;;;;;;;19.13;10.50;;;20.70;95.70;;;;;;7401498;19;19927;-73
2023/10/14 04:32:27;;;;;;;15.77;11.02;;;20.70;95.70;;;;;;7399854;19;19941;-73
2023/10/14 04:34:58;;;;;;;21.27;11.85;;;20.60;95.60;;;;;;7402706;19;19918;-73
2023/10/14 04:37:27;;;;;;;16.75;11.02;;;20.70;95.80;;;;;;7396702;19;19926;-73
2023/10/14 04:39:58;;;;;;;16.20;10.18;;;20.60;95.80;;;;;;7404232;19;19915;-74
2023/10/14 04:42:36;;;;;;;15.30;11.07;;;20.60;95.80;;;;;;7401493;19;20248;-73
2023/10/14 04:45:07;;;;;;;13.45;10.70;;;20.60;95.80;;;;;;7404775;19;19968;-73
2023/10/14 04:47:35;;;;;;;14.38;10.50;;;20.70;95.90;;;;;;7397126;19;19918;-73
2023/10/14 04:50:10;;;;;;;17.58;12.10;;;20.70;95.90;;;;;;7399009;19;19997;-73
2023/10/14 04:52:41;;;;;;;17.83;11.73;;;20.70;96.00;;;;;;7400682;19;19921;-73
2023/10/14 04:55:27;;;;;;;17.50;11.45;;;20.60;96.10;;;;;;7398551;19;19947;-73
2023/10/14 04:58:06;;;;;;;20.42;11.27;;;20.60;96.20;;;;;;7396652;19;20274;-73
2023/10/14 05:00:42;;;;;;;14.70;11.23;;;20.60;96.30;;;;;;7402756;19;20338;-74
2023/10/14 05:03:13;;;;;;;14.35;11.40;;;20.60;96.50;;;;;;7398329;19;20011;-74
2023/10/14 05:05:43;;;;;;;16.85;11.27;;;20.60;96.50;;;;;;7400867;19;19922;-73
2023/10/14 05:08:15;;;;;;;15.45;11.40;;;20.60;96.50;;;;;;7399073;19;20476;-73
2023/10/14 05:10:47;;;;;;;17.92;11.93;;;20.60;96.50;;;;;;7401561;19;19910;-74
2023/10/14 05:13:14;;;;;;;16.15;11.40;;;20.60;96.70;;;;;;7401174;19;20264;-74
2023/10/14 05:15:42;;;;;;;14.98;11.18;;;20.60;96.70;;;;;;7399714;19;19938;-73
2023/10/14 05:18:16;;;;;;;20.13;11.18;;;20.60;96.80;;;;;;7398424;19;20554;-73
2023/10/14 05:23:24;;;;;;;15.60;10.20;;;20.60;97.10;;;;;;7401130;19;19923;-74
2023/10/14 05:25:56;;;;;;;16.00;10.90;;;20.60;97.10;;;;;;7400294;19;19914;-73
2023/10/14 05:28:29;;;;;;;16.92;11.43;;;20.60;97.20;;;;;;7399430;19;19954;-74
2023/10/14 05:30:57;;;;;;;16.10;11.43;;;20.60;97.30;;;;;;7403443;19;19923;-74
2023/10/14 05:33:24;;;;;;;15.30;11.00;;;20.60;97.40;;;;;;7399923;19;19941;-73
2023/10/14 05:35:49;;;;;;;;;;;20.60;97.40;;;;;;7407108;19;20313;-74
2023/10/14 05:38:17;;;;;;;13.90;10.13;;;20.60;97.40;;;;;;7404084;19;19952;-74
2023/10/14 05:40:43;;;;;;;14.63;10.20;;;20.60;97.40;;;;;;7402866;19;19929;-74
2023/10/14 05:43:09;;;;;;;19.73;10.88;;;20.60;97.50;;;;;;7401821;19;20014;-74
2023/10/14 05:45:36;;;;;;;15.15;11.65;;;20.70;97.50;;;;;;7404856;19;19940;-72
2023/10/14 05:48:04;;;;;;;17.20;11.55;;;20.70;97.50;;;;;;7395071;19;19930;-73
2023/10/14 05:50:31;;;;;;;17.77;12.13;;;20.70;97.40;;;;;;7400877;19;19932;-73
2023/10/14 05:52:57;;;;;;;16.80;11.27;;;20.70;97.60;;;;;;7397502;19;19921;-73
2023/10/14 05:55:22;;;;;;;17.35;11.30;;;20.70;97.80;;;;;;7399144;19;19939;-73
2023/10/14 05:57:49;;;;;;;15.98;10.68;;;20.70;97.90;;;;;;7399974;19;19910;-74
2023/10/14 06:00:22;;;;;;;17.35;11.65;;;20.70;98.00;;;;;;7399403;19;20376;-74
2023/10/14 06:02:49;;;;;;;15.85;11.55;;;20.60;98.10;;;;;;7400794;19;19915;-74
2023/10/14 06:05:20;;;;;;;17.58;11.30;;;20.60;98.00;;;;;;7396015;19;19923;-75
2023/10/14 06:07:49;;;;;;;15.75;11.52;;;20.60;98.00;;;;;;7400718;19;20327;-74
2023/10/14 06:10:20;;;;;;;15.48;10.70;;;20.70;98.10;;;;;;7402752;19;19946;-74
2023/10/14 06:12:48;;;;;;;18.90;12.55;;;20.70;98.00;;;;;;7399525;19;20532;-74
2023/10/14 06:15:17;;;;;;;17.77;11.35;;;20.70;97.90;;;;;;7401265;19;20676;-73
2023/10/14 06:17:48;;;;;;;18.13;11.98;;;20.70;97.90;;;;;;7399085;19;20386;-75
2023/10/14 06:20:15;;;;;;;16.95;11.38;;;20.80;97.90;;;;;;7375838;19;19915;-74
2023/10/14 06:22:42;;;;;;;17.70;10.77;;;20.80;97.90;;;;;;7395435;19;19918;-74
2023/10/14 06:25:08;;;;;;;18.13;10.75;;;20.80;97.80;;;;;;7398741;19;20016;-74
2023/10/14 06:27:34;;;;;;;18.02;11.45;;;20.90;97.70;;;;;;7403674;19;20299;-72
2023/10/14 06:30:01;;;;;;;15.40;10.45;;;21.00;97.60;;;;;;7398145;19;19923;-73
2023/10/14 06:32:29;;;;;;;16.17;11.20;;;21.10;97.50;;;;;;7377626;19;19924;-73
2023/10/14 06:35:02;;;;;;;18.15;11.57;;;21.10;97.10;;;;;;7399401;19;19917;-73
2023/10/14 06:37:28;;;;;;;15.23;10.45;;;21.20;96.90;;;;;;7400080;19;19949;-74
2023/10/14 06:39:56;;;;;;;16.70;10.73;;;21.20;96.60;;;;;;7397480;19;19918;-74
2023/10/14 06:42:22;;;;;;;15.95;10.27;;;21.30;96.40;;;;;;7401197;19;20382;-74
2023/10/14 06:44:48;;;;;;;17.63;10.68;;;21.30;96.10;;;;;;7402053;19;19953;-75
2023/10/14 06:47:15;;;;;;;16.42;11.25;;;21.30;95.90;;;;;;7396161;19;19921;-74
2023/10/14 06:49:44;;;;;;;14.93;10.55;;;21.40;95.70;;;;;;7400393;19;20744;-73
2023/10/14 06:52:14;;;;;;;16.65;10.38;;;21.40;95.50;;;;;;7397970;19;20280;-73
2023/10/14 06:54:41;;;;;;;16.27;10.85;;;21.40;95.10;;;;;;7396643;19;19956;-73
2023/10/14 06:57:10;;;;;;;13.38;9.65;;;21.40;94.90;;;;;;7394182;19;19946;-72
2023/10/14 06:59:37;;;;;;;17.42;11.02;;;21.40;94.90;;;;;;7401863;19;19918;-74
2023/10/14 07:02:03;;;;;;;18.15;9.18;;;21.40;94.70;;;;;;7400173;19;19915;-73
2023/10/14 07:04:29;;;;;;;13.38;9.80;;;21.40;94.60;;;;;;7400727;19;19919;-73
2023/10/14 07:06:58;;;;;;;15.50;10.88;;;21.40;94.50;;;;;;7394436;19;19915;-72
2023/10/14 07:09:27;;;;;;;13.65;9.45;;;21.40;94.40;;;;;;7395541;19;19911;-72
2023/10/14 07:11:55;;;;;;;15.07;9.63;;;21.40;94.30;;;;;;7396933;19;19919;-74
2023/10/14 07:14:21;;;;;;;15.93;9.82;;;21.40;94.00;;;;;;7395411;19;19919;-73
2023/10/14 07:16:47;;;;;;;14.85;9.00;;;21.50;93.70;;;;;;7394973;19;19918;-74
2023/10/14 07:19:13;;;;;;;14.13;9.30;;;21.50;93.30;;;;;;7394059;19;20317;-73
2023/10/14 07:21:39;;;;;;;14.93;9.13;;;21.50;92.60;;;;;;7397171;19;19926;-73
2023/10/14 07:24:05;;;;;;;13.45;9.23;;;21.50;92.40;;;;;;7394174;19;19940;-75
2023/10/14 07:26:36;;;;;;;15.00;10.07;;;21.60;92.40;;;;;;7400759;19;19919;-74
2023/10/14 07:29:05;;;;;;;12.82;8.93;;;21.70;92.40;;;;;;7397588;19;20377;-75
2023/10/14 07:31:32;;;;;;;14.93;9.27;;;21.80;92.40;;;;;;7398579;19;19933;-73
2023/10/14 07:34:08;;;;;;;14.02;9.63;;;21.80;92.30;;;;;;7399689;19;20330;-74
2023/10/14 07:36:35;;;;;;;15.20;9.23;;;21.90;92.00;;;;;;7402910;19;19939;-74
2023/10/14 07:41:45;;;;;;;12.80;8.93;;;22.00;91.30;;;;;;7400803;19;19921;-74
2023/10/14 07:44:10;;;;;;;14.68;9.38;;;22.00;91.70;;;;;;7402255;19;19990;-73
2023/10/14 07:46:36;;;;;;;18.40;10.00;;;22.00;91.70;;;;;;7397571;19;19910;-74
2023/10/14 07:49:02;;;;;;;15.38;8.95;;;22.10;91.50;;;;;;7400728;19;19919;-74
2023/10/14 07:51:28;;;;;;;15.05;8.30;;;22.20;91.40;;;;;;7404321;19;19931;-74
2023/10/14 07:53:55;;;;;;;11.70;8.27;;;22.30;91.00;;;;;;7402289;19;19923;-74
2023/10/14 07:56:23;;;;;;;11.35;8.70;;;22.50;90.60;;;;;;7401166;19;19923;-74
2023/10/14 07:58:49;;;;;;;15.98;8.80;;;22.60;90.10;;;;;;7403848;19;19918;-74
2023/10/14 08:01:16;;;;;;;13.38;8.65;;;22.70;90.30;;;;;;7400833;19;20315;-74
2023/10/14 08:03:42;;;;;;;13.23;9.30;;;22.90;89.60;;;;;;7388216;19;20255;-73
2023/10/14 08:06:10;;;;;;;14.10;8.55;;;23.00;88.80;;;;;;7390133;19;19914;-74
2023/10/14 08:08:57;;;;;;;14.13;8.63;;;23.20;87.80;;;;;;7394662;19;19911;-74
2023/10/14 08:11:22;;;;;;;10.65;8.20;;;23.30;87.00;;;;;;7361318;19;20399;-73
2023/10/14 08:13:48;;;;;;;19.17;8.07;;;23.70;85.80;;;;;;7398909;19;19951;-73
2023/10/14 08:16:15;;;;;;;12.48;8.27;;;24.00;83.10;;;;;;7394421;19;19949;-74
2023/10/14 08:18:41;;;;;;;12.70;8.18;;;24.70;79.60;;;;;;7400507;19;19922;-73
2023/10/14 08:21:09;;;;;;;15.55;7.68;;;25.30;76.10;;;;;;7401242;19;19914;-75
2023/10/14 08:23:35;;;;;;;15.98;8.73;;;25.40;73.60;;;;;;7400198;19;20383;-74
2023/10/14 08:26:02;;;;;;;13.32;7.93;;;25.10;74.40;;;;;;7401118;19;19956;-73
2023/10/14 08:28:28;;;;;;;13.98;7.88;;;24.90;75.20;;;;;;7401867;19;19926;-74
2023/10/14 08:30:57;;;;;;;10.18;7.82;;;24.60;76.60;;;;;;7400397;19;19919;-73
2023/10/14 08:33:24;;;;;;;12.82;7.90;;;24.50;78.90;;;;;;7394114;19;19940;-73
2023/10/14 08:35:51;;;;;;;12.25;7.63;;;24.30;81.00;;;;;;7391951;19;19942;-74
2023/10/14 08:38:22;;;;;;;15.98;7.78;;;24.40;82.30;;;;;;7396643;19;20051;-73
2023/10/14 08:40:54;;;;;;;14.35;7.85;;;24.60;81.70;;;;;;7402638;19;19942;-74
2023/10/14 08:43:21;;;;;;;;;;;24.80;80.50;;;;;;7397272;19;19918;-74
2023/10/14 08:45:51;;;;;;;13.77;8.23;;;25.00;80.30;;;;;;7392421;19;19930;-73
2023/10/14 08:48:24;;;;;;;14.50;7.90;;;25.20;79.60;;;;;;7392506;19;19999;-75
2023/10/14 08:50:53;;;;;;;12.45;7.72;;;25.20;78.60;;;;;;7403812;19;19960;-73
2023/10/14 08:53:22;;;;;;;13.57;7.85;;;25.00;80.50;;;;;;7395621;19;19923;-74
2023/10/14 08:55:48;;;;;;;12.80;8.23;;;25.00;80.30;;;;;;7398095;19;19964;-74
2023/10/14 08:58:15;;;;;;;13.63;7.43;;;25.00;79.60;;;;;;7388101;19;19914;-74
2023/10/14 09:00:42;;;;;;;13.13;7.90;;;25.00;80.70;;;;;;7402252;19;19919;-74
2023/10/14 09:03:09;;;;;;;12.70;8.18;;;24.90;80.30;;;;;;7403164;19;19925;-75
2023/10/14 09:05:40;;;;;;;13.20;7.55;;;24.70;80.60;;;;;;7399580;19;19926;-74
2023/10/14 09:08:11;;;;;;;11.80;8.60;;;24.80;80.40;;;;;;7397428;19;19925;-75
2023/10/14 09:10:37;;;;;;;13.30;8.23;;;24.70;80.30;;;;;;7404005;19;19930;-74
2023/10/14 09:13:09;;;;;;;12.13;8.20;;;24.70;80.80;;;;;;7392816;19;19915;-75
2023/10/14 09:15:42;;;;;;;11.45;7.75;;;24.90;79.60;;;;;;7403453;19;19911;-75
2023/10/14 09:18:13;;;;;;;12.93;7.70;;;25.00;79.30;;;;;;7401382;19;20392;-74
2023/10/14 09:20:41;;;;;;;12.60;8.15;;;25.10;78.80;;;;;;7402936;19;19927;-74
2023/10/14 09:23:44;;;;;;;12.85;8.18;;;25.40;78.80;;;;;;7399936;19;19934;-75
2023/10/14 09:26:11;;;;;;;11.32;7.22;;;25.90;76.40;;;;;;7401165;19;19914;-75
2023/10/14 09:28:40;;;;;;;12.02;6.97;;;26.60;71.30;;;;;;7399513;19;19911;-74
2023/10/14 09:31:08;;;;;;;15.23;7.65;;;26.90;69.60;;;;;;7398549;19;19920;-76
2023/10/14 09:33:36;;;;;;;10.20;6.32;;;26.90;68.00;;;;;;7395779;19;19925;-75
2023/10/14 09:36:05;;;;;;;11.93;6.75;;;27.00;68.20;;;;;;7401033;19;19915;-74
2023/10/14 09:38:33;;;;;;;14.50;7.30;;;27.00;68.10;;;;;;7397820;19;19974;-74
2023/10/14 09:41:03;;;;;;;11.55;6.40;;;27.00;67.80;;;;;;7400816;19;19918;-75
2023/10/14 09:43:33;;;;;;;11.55;6.57;;;27.20;66.70;;;;;;7398212;19;20025;-74
2023/10/14 09:46:11;;;;;;;11.63;5.72;;;27.40;65.80;;;;;;7401265;19;19962;-75
2023/10/14 09:48:37;;;;;;;11.95;6.57;;;27.70;64.90;;;;;;7398914;19;20424;-75
2023/10/14 09:51:05;;;;;;;11.70;6.38;;;27.70;63.50;;;;;;7396192;19;19946;-74
2023/10/14 09:53:33;;;;;;;11.13;5.90;;;27.70;62.80;;;;;;7401430;19;19918;-75
2023/10/14 09:56:11;;;;;;;10.50;5.35;;;27.80;60.00;;;;;;7396887;19;20027;-74
2023/10/14 09:58:41;;;;;;;10.43;5.80;;;28.00;57.50;;;;;;7399439;19;19922;-75
2023/10/14 10:01:26;;;;;;;10.05;5.63;;;28.30;56.60;;;;;;7400913;19;19942;-75
2023/10/14 10:04:16;;;;;;;11.77;5.82;;;28.70;55.60;;;;;;7400201;19;19918;-75
2023/10/14 10:07:07;;;;;;;13.93;6.05;;;28.60;56.60;;;;;;7403710;19;19926;-76
2023/10/14 10:10:13;;;;;;;11.75;6.93;;;28.40;56.40;;;;;;7401537;19;20354;-75
2023/10/14 10:12:43;;;;;;;9.65;5.68;;;28.40;56.00;;;;;;7400309;19;19917;-74
2023/10/14 10:15:09;;;;;;;10.93;6.38;;;28.90;54.30;;;;;;7401010;19;19951;-75
2023/10/14 10:17:39;;;;;;;10.63;6.00;;;28.90;53.40;;;;;;7396989;19;19946;-74
2023/10/14 10:20:10;;;;;;;13.68;5.82;;;29.10;52.90;;;;;;7393917;19;19932;-75
2023/10/14 10:22:52;;;;;;;11.55;5.82;;;28.70;53.70;;;;;;7399721;19;19918;-75
2023/10/14 10:25:37;;;;;;;10.38;6.18;;;28.60;53.30;;;;;;7396403;19;20540;-75
2023/10/14 10:28:35;;;;;;;9.43;5.68;;;28.40;53.40;;;;;;7401605;19;19949;-75
2023/10/14 10:31:11;;;;;;;9.05;5.47;;;28.40;53.50;;;;;;7403603;19;19939;-76
2023/10/14 10:33:55;;;;;;;10.95;6.03;;;28.10;53.10;;;;;;7397456;19;19922;-74
2023/10/14 10:36:29;;;;;;;12.52;5.80;;;28.00;53.90;;;;;;7395919;19;19918;-76
2023/10/14 10:39:15;;;;;;;8.80;5.25;;;27.80;53.80;;;;;;7401110;19;19954;-75
2023/10/14 10:41:42;;;;;;;11.05;6.07;;;27.80;53.50;;;;;;7396185;19;19921;-75
2023/10/14 10:44:11;;;;;;;11.02;6.05;;;27.80;54.40;;;;;;7400165;19;19974;-76
2023/10/14 10:46:48;;;;;;;11.45;6.82;;;27.70;55.40;;;;;;7404608;19;19915;-75
2023/10/14 10:49:16;;;;;;;12.30;6.57;;;27.70;56.00;;;;;;7395046;19;19919;-74
2023/10/14 10:51:50;;;;;;;11.63;5.78;;;27.90;55.40;;;;;;7401092;19;19926;-75
2023/10/14 10:54:20;;;;;;;12.40;5.35;;;28.10;53.30;;;;;;7396914;19;20278;-76
2023/10/14 10:56:46;;;;;;;9.27;5.30;;;28.30;52.30;;;;;;7400331;19;19911;-74
2023/10/14 10:59:14;;;;;;;;;;;28.20;52.00;;;;;;7399288;19;19949;-74
2023/10/14 11:01:42;;;;;;;9.90;4.85;;;28.10;51.10;;;;;;7401023;19;19918;-74
2023/10/14 11:04:13;;;;;;;9.60;5.10;;;28.30;50.70;;;;;;7401519;19;20397;-75
2023/10/14 11:06:39;;;;;;;13.07;5.82;;;28.70;49.60;;;;;;7400314;19;19911;-76
2023/10/14 11:09:05;;;;;;;9.18;5.25;;;28.90;49.20;;;;;;7401645;19;19933;-74
2023/10/14 11:11:33;;;;;;;9.95;5.53;;;28.90;48.70;;;;;;7406836;19;19915;-74
2023/10/14 11:14:00;;;;;;;11.98;5.72;;;28.80;49.50;;;;;;7407211;19;19922;-74
2023/10/14 11:16:30;;;;;;;9.15;5.32;;;29.20;48.80;;;;;;7407104;19;19911;-73
2023/10/14 11:18:57;;;;;;;13.82;5.03;;;29.10;47.90;;;;;;7401371;19;19946;-74
2023/10/14 11:21:27;;;;;;;9.23;4.97;;;28.90;47.70;;;;;;7398694;19;20270;-73
2023/10/14 11:23:55;;;;;;;8.38;4.97;;;28.70;47.80;;;;;;7404568;19;19915;-74
2023/10/14 11:26:23;;;;;;;8.02;4.45;;;28.60;47.50;;;;;;7402940;19;19918;-74
2023/10/14 11:28:51;;;;;;;10.45;5.57;;;28.70;47.10;;;;;;7406638;19;20335;-73
2023/10/14 11:31:20;;;;;;;9.35;4.85;;;28.80;47.40;;;;;;7405044;19;19918;-74
2023/10/14 11:33:47;;;;;;;10.27;4.88;;;28.70;46.20;;;;;;7401627;19;19928;-74
2023/10/14 11:36:18;;;;;;;10.00;5.40;;;28.70;45.90;;;;;;7403943;19;19915;-74
2023/10/14 11:38:46;;;;;;;9.45;5.38;;;29.30;44.20;;;;;;7402838;19;19919;-73
2023/10/14 11:41:15;;;;;;;8.93;4.85;;;30.10;42.50;;;;;;7403833;19;20721;-73
2023/10/14 11:43:46;;;;;;;7.80;4.47;;;30.20;41.60;;;;;;7399544;19;19919;-74
2023/10/14 11:46:12;;;;;;;8.38;5.57;;;30.50;40.50;;;;;;7403207;19;19923;-73
2023/10/14 11:48:38;;;;;;;10.80;6.18;;;30.70;40.20;;;;;;7402250;19;19922;-74
2023/10/14 11:51:11;;;;;;;;;;;31.10;38.80;;;;;;7402365;19;19953;-74
2023/10/14 11:53:43;;;;;;;8.93;5.80;;;31.50;38.00;;;;;;7401979;19;19961;-73
2023/10/14 11:56:13;;;;;;;8.27;4.90;;;31.80;36.10;;;;;;7402464;19;19925;-75
2023/10/14 11:58:43;;;;;;;10.23;4.38;;;31.60;35.60;;;;;;7406505;19;19911;-75
2023/10/14 12:01:09;;;;;;;7.25;4.47;;;31.40;34.80;;;;;;7401332;19;19982;-75
2023/10/14 12:03:39;;;;;;;7.35;4.40;;;31.50;34.80;;;;;;7406410;19;19956;-75
2023/10/14 12:06:12;;;;;;;11.35;5.40;;;31.80;34.60;;;;;;7400965;19;19959;-74
2023/10/14 12:08:38;;;;;;;8.38;4.60;;;32.00;34.30;;;;;;7405167;19;20008;-75
2023/10/14 12:11:08;;;;;;;10.15;4.90;;;32.30;33.40;;;;;;7401331;19;19925;-76
2023/10/14 12:13:35;;;;;;;10.20;5.43;;;32.40;32.80;;;;;;7403820;19;20631;-75
2023/10/14 12:16:05;;;;;;;9.05;5.13;;;32.50;32.60;;;;;;7409245;19;19915;-75
2023/10/14 12:18:35;;;;;;;9.75;5.75;;;32.50;32.40;;;;;;7400779;19;20311;-76
2023/10/14 12:21:02;;;;;;;13.05;5.70;;;32.60;31.30;;;;;;7404680;19;19923;-74
2023/10/14 12:23:31;;;;;;;9.55;5.38;;;32.70;30.00;;;;;;7403144;19;19922;-74
2023/10/14 12:26:01;;;;;;;9.82;5.15;;;32.70;30.20;;;;;;7406161;19;20339;-75
2023/10/14 12:28:33;;;;;;;8.10;5.22;;;33.00;29.50;;;;;;7404476;19;19934;-75
2023/10/14 12:31:06;;;;;;;;;;;33.30;29.00;;;;;;7386937;19;19925;-74
2023/10/14 12:33:38;;;;;;;9.40;6.13;;;33.60;28.60;;;;;;7402124;19;20670;-74
2023/10/14 12:36:11;;;;;;;;;;;34.00;28.10;;;;;;7395383;19;19910;-75
2023/10/14 12:38:42;;;;;;;9.55;5.32;;;34.00;25.80;;;;;;7399341;19;20322;-73
2023/10/14 12:41:09;;;;;;;10.48;6.00;;;34.30;24.00;;;;;;7402314;19;20437;-73
2023/10/14 12:43:41;;;;;;;9.98;4.63;;;34.20;24.00;;;;;;7389501;19;19944;-76
2023/10/14 12:46:19;;;;;;;9.13;4.70;;;33.30;24.50;;;;;;7378840;19;19966;-75
2023/10/14 12:48:48;;;;;;;14.07;5.93;;;33.00;24.90;;;;;;7406595;19;20440;-75
2023/10/14 12:51:25;;;;;;;9.35;5.30;;;33.10;25.50;;;;;;7399002;19;19955;-75
2023/10/14 12:53:57;;;;;;;12.27;4.63;;;33.80;24.80;;;;;;7406374;19;19927;-74
2023/10/14 12:56:26;;;;;;;9.73;5.38;;;33.70;24.20;;;;;;7397954;19;19946;-74
2023/10/14 12:58:53;;;;;;;10.18;4.65;;;33.60;24.40;;;;;;7405028;19;19915;-75
2023/10/14 13:01:21;;;;;;;9.15;5.75;;;33.40;24.00;;;;;;7398735;19;19922;-73
2023/10/14 13:03:52;;;;;;;9.55;4.60;;;33.60;23.40;;;;;;7398958;19;19918;-73
2023/10/14 13:06:26;;;;;;;10.32;5.32;;;34.10;23.30;;;;;;7398456;19;19930;-73
2023/10/14 13:09:00;;;;;;;10.35;5.15;;;34.70;22.70;;;;;;7381584;19;20328;-74